Terminal Aerodrome Forecast
Issued by NWS

Home | Current Version | Previous Version | Graphics & Text | Print | Product List | Glossary On
Versions: 1 2 3 4 5 6 7 8 9 10 11 12 13 14 15 16 17 18 19 20 21 22
000
FTUS42 KMHX 040214 AAB
TAFISO
TAF AMD
KISO 040214Z 0402/0424 00000KT 4SM BR SKC
      TEMPO 0404/0407 2SM BR
     FM040700 00000KT 1SM BR BKN003
     FM041300 VRB03KT 4SM BR SCT006
     FM041400 03005KT P6SM SCT050
      AMD LTD TO CLD VIS AND WIND=

USA.gov is the U.S. government's official web portal to all federal, state and local government web resources and services.